Weather at Panensky Tynec Airport

Public forecast

Using degrees Celsius for public forecast. Weather courtesy of forecast.io.

Closest aviation weather report (METAR) to Panensky Tynec Airport

Closest report is Václav Havel Airport Prague, 17.6 nm (32.5 km) SE. Retrieved 2021/08/04 05:30 UTC (3 minutes ago):

LKPR 040530Z 23008KT 9999 -RA FEW006 15/14 Q1014 NOSIG

Closest aviation forecast (TAF) to Panensky Tynec Airport

Closest forecast is Václav Havel Airport Prague, 17.6 nm (32.5 km) SE. Retrieved 2021-08-04 00:33 UTC (5 hours ago):

TAF LKPR 032300Z 0400/0506 22006KT 9999 BKN030 TEMPO 0400/0411 7000 RA BKN015 TEMPO 0412/0419 6000 SHRA SCT025TCU BECMG 0503/0506 5000 -RA BR SCT008 BKN015